createdAt,value
2019-03-31T00:00:31.443Z,22.70
2019-03-31T00:03:03.210Z,22.80
2019-03-31T00:05:30.363Z,22.80
2019-03-31T00:07:57.508Z,22.80
2019-03-31T00:10:24.443Z,22.80
2019-03-31T00:12:51.712Z,22.80
2019-03-31T00:15:18.322Z,22.80
2019-03-31T00:17:47.707Z,22.70
2019-03-31T00:20:14.535Z,22.70
2019-03-31T00:22:41.087Z,22.50
2019-03-31T00:25:12.255Z,22.50
2019-03-31T00:27:39.320Z,22.50
2019-03-31T00:30:08.501Z,22.50
2019-03-31T00:32:36.717Z,22.50
2019-03-31T00:35:03.728Z,22.50
2019-03-31T00:37:31.303Z,22.60
2019-03-31T00:39:57.969Z,22.60
2019-03-31T00:42:24.536Z,22.60
2019-03-31T00:44:51.115Z,22.60
2019-03-31T00:47:17.779Z,22.60
2019-03-31T00:49:44.261Z,22.60
2019-03-31T00:52:10.722Z,22.60
2019-03-31T00:54:37.205Z,22.60
2019-03-31T00:57:03.767Z,22.60
2019-03-31T00:59:30.256Z,22.60
2019-03-31T01:01:59.116Z,22.70
2019-03-31T01:04:27.212Z,22.70
2019-03-31T01:06:56.793Z,22.70
2019-03-31T01:09:26.987Z,22.70
2019-03-31T01:11:53.555Z,22.70
2019-03-31T01:14:20.307Z,22.70
2019-03-31T01:16:46.916Z,22.70
2019-03-31T01:19:13.886Z,22.60
2019-03-31T01:21:40.467Z,22.40
2019-03-31T01:24:08.232Z,22.30
2019-03-31T01:26:34.808Z,22.30
2019-03-31T01:29:01.373Z,22.30
2019-03-31T01:31:28.653Z,22.10
2019-03-31T01:33:55.461Z,22.10
2019-03-31T01:36:22.235Z,22.10
2019-03-31T01:38:48.801Z,22.10
2019-03-31T01:41:15.486Z,22.00
2019-03-31T01:43:42.040Z,21.90
2019-03-31T01:46:10.545Z,21.90
2019-03-31T01:48:37.207Z,21.90
2019-03-31T01:51:04.080Z,21.90
2019-03-31T01:53:30.639Z,21.90
2019-03-31T01:55:57.225Z,21.90
2019-03-31T01:58:23.791Z,22.00
2019-03-31T02:00:55.466Z,22.00
2019-03-31T02:03:22.124Z,22.00
2019-03-31T02:05:48.700Z,21.90
2019-03-31T02:08:15.377Z,21.80
2019-03-31T02:10:42.045Z,21.80
2019-03-31T02:13:08.604Z,21.80
2019-03-31T02:15:35.097Z,21.90
2019-03-31T02:18:01.564Z,21.90
2019-03-31T02:20:28.010Z,22.00
2019-03-31T02:22:54.494Z,22.00
2019-03-31T02:25:20.954Z,22.00
2019-03-31T02:27:47.549Z,22.10
2019-03-31T02:30:14.309Z,22.10
2019-03-31T02:32:40.888Z,22.10
2019-03-31T02:35:07.498Z,22.10
2019-03-31T02:37:34.064Z,22.20
2019-03-31T02:40:00.998Z,22.10
2019-03-31T02:42:27.930Z,22.20
2019-03-31T02:44:54.748Z,22.30
2019-03-31T02:47:21.617Z,22.30
2019-03-31T02:49:48.429Z,22.30
2019-03-31T02:52:15.483Z,22.30
2019-03-31T02:54:42.456Z,22.40
2019-03-31T02:57:09.395Z,22.50
2019-03-31T02:59:37.415Z,22.60
2019-03-31T03:02:04.367Z,22.50
2019-03-31T03:04:31.374Z,22.50
2019-03-31T03:07:01.437Z,22.40
2019-03-31T03:09:28.331Z,22.40
2019-03-31T03:11:55.474Z,22.40
2019-03-31T03:14:23.433Z,22.40
2019-03-31T03:16:50.359Z,22.30
2019-03-31T03:19:17.318Z,22.20
2019-03-31T03:21:44.254Z,22.20
2019-03-31T03:24:13.028Z,22.20
2019-03-31T03:26:39.941Z,22.10
2019-03-31T03:29:06.553Z,22.20
2019-03-31T03:31:33.169Z,22.20
2019-03-31T03:33:59.706Z,22.20
2019-03-31T03:36:26.292Z,22.20
2019-03-31T03:38:52.892Z,22.20
2019-03-31T03:41:19.455Z,22.20
2019-03-31T03:43:54.928Z,22.30
2019-03-31T03:46:14.557Z,22.20
2019-03-31T03:48:41.036Z,22.30
2019-03-31T03:51:07.522Z,22.30
2019-03-31T03:53:34.158Z,22.30
2019-03-31T03:56:00.739Z,22.30
2019-03-31T03:58:27.196Z,22.40
2019-03-31T04:00:53.909Z,22.40
2019-03-31T04:03:30.139Z,22.40
2019-03-31T04:05:48.748Z,22.50
2019-03-31T04:08:15.310Z,22.70
2019-03-31T04:10:45.526Z,22.80
2019-03-31T04:13:12.118Z,22.80
2019-03-31T04:15:38.972Z,22.90
2019-03-31T04:18:05.520Z,23.00
2019-03-31T04:20:32.085Z,23.00
2019-03-31T04:22:58.557Z,23.10
2019-03-31T04:25:25.148Z,23.10
2019-03-31T04:27:51.716Z,23.10
2019-03-31T04:30:18.298Z,23.20
2019-03-31T04:32:44.748Z,23.20
2019-03-31T04:35:11.347Z,23.20
2019-03-31T04:37:37.956Z,23.20
2019-03-31T04:40:04.934Z,23.10
2019-03-31T04:42:31.488Z,23.00
2019-03-31T04:44:58.060Z,22.90
2019-03-31T04:47:24.521Z,22.80
2019-03-31T04:49:51.015Z,22.70
2019-03-31T04:52:17.491Z,22.70
2019-03-31T04:54:43.972Z,22.60
2019-03-31T04:57:10.542Z,22.60
2019-03-31T04:59:37.021Z,22.60
2019-03-31T05:02:03.495Z,22.70
2019-03-31T05:04:30.073Z,22.70
2019-03-31T05:06:56.621Z,22.80
2019-03-31T05:09:23.108Z,23.00
2019-03-31T05:11:49.668Z,23.20
2019-03-31T05:14:16.287Z,23.40
2019-03-31T05:16:42.873Z,23.60
2019-03-31T05:19:09.476Z,24.00
2019-03-31T05:21:36.108Z,24.40
2019-03-31T05:24:02.658Z,24.80
2019-03-31T05:26:29.300Z,25.30
2019-03-31T05:28:55.944Z,25.80
2019-03-31T05:31:22.463Z,26.30
2019-03-31T05:33:51.791Z,26.70
2019-03-31T05:36:18.390Z,27.00
2019-03-31T05:38:44.872Z,27.30
2019-03-31T05:41:11.498Z,27.50
2019-03-31T05:43:38.066Z,27.80
2019-03-31T05:46:04.552Z,28.10
2019-03-31T05:48:31.027Z,28.40
2019-03-31T05:50:57.512Z,28.60
2019-03-31T05:53:23.990Z,28.80
2019-03-31T05:55:52.147Z,29.00
2019-03-31T05:58:18.635Z,29.20
2019-03-31T06:00:45.629Z,29.30
2019-03-31T06:03:12.294Z,29.50
2019-03-31T06:05:39.179Z,29.70
2019-03-31T06:08:06.754Z,29.90
2019-03-31T06:10:33.569Z,30.10
2019-03-31T06:13:00.245Z,30.30
2019-03-31T06:15:26.861Z,30.50
2019-03-31T06:17:53.461Z,30.60
2019-03-31T06:20:20.050Z,30.80
2019-03-31T06:22:46.617Z,30.90
2019-03-31T06:25:14.696Z,31.10
2019-03-31T06:27:41.287Z,31.40
2019-03-31T06:30:08.100Z,31.80
2019-03-31T06:32:34.785Z,32.20
2019-03-31T06:35:01.398Z,32.50
2019-03-31T06:37:28.078Z,32.70
2019-03-31T06:39:54.819Z,33.00
2019-03-31T06:42:21.430Z,33.20
2019-03-31T06:44:48.146Z,33.50
2019-03-31T06:47:14.761Z,33.80
2019-03-31T06:49:41.432Z,34.10
2019-03-31T06:52:08.050Z,34.30
2019-03-31T06:54:34.641Z,34.50
2019-03-31T06:57:01.246Z,34.50
2019-03-31T06:59:28.025Z,34.50
2019-03-31T07:01:54.634Z,34.40
2019-03-31T07:04:21.211Z,34.40
2019-03-31T07:06:47.703Z,34.50
2019-03-31T07:09:15.389Z,34.70
2019-03-31T07:11:42.033Z,34.80
2019-03-31T07:14:08.719Z,34.80
2019-03-31T07:16:35.675Z,34.80
2019-03-31T07:19:02.528Z,34.80
2019-03-31T07:21:30.502Z,34.80
2019-03-31T07:23:57.279Z,34.80
2019-03-31T07:26:24.063Z,34.80
2019-03-31T07:28:50.633Z,34.70
2019-03-31T07:31:17.132Z,34.60
2019-03-31T07:33:43.704Z,34.50
2019-03-31T07:36:10.200Z,34.40
2019-03-31T07:38:39.179Z,34.40
2019-03-31T07:41:12.675Z,34.30
2019-03-31T07:43:33.513Z,34.30
2019-03-31T07:46:00.100Z,34.30
2019-03-31T07:48:27.933Z,34.20
2019-03-31T07:50:55.492Z,34.20
2019-03-31T07:53:21.968Z,34.30
2019-03-31T07:55:48.451Z,34.40
2019-03-31T07:58:15.065Z,34.60
2019-03-31T08:00:41.617Z,34.70
2019-03-31T08:03:09.910Z,35.00
2019-03-31T08:05:37.770Z,35.10
2019-03-31T08:08:04.795Z,35.10
2019-03-31T08:10:31.582Z,35.10
2019-03-31T08:12:59.216Z,35.00
2019-03-31T08:15:25.813Z,34.90
2019-03-31T08:17:53.129Z,34.90
2019-03-31T08:20:20.914Z,34.90
2019-03-31T08:22:48.035Z,34.90
2019-03-31T08:25:15.001Z,35.10
2019-03-31T08:27:42.253Z,35.20
2019-03-31T08:30:12.181Z,35.40
2019-03-31T08:32:39.825Z,35.60
2019-03-31T08:35:07.260Z,35.80
2019-03-31T08:37:34.326Z,35.90
2019-03-31T08:40:01.245Z,35.90
2019-03-31T08:42:29.328Z,35.80
2019-03-31T08:44:56.258Z,35.60
2019-03-31T08:47:23.341Z,35.50
2019-03-31T08:49:50.068Z,35.40
2019-03-31T08:52:16.983Z,35.20
2019-03-31T08:54:43.618Z,35.10
2019-03-31T08:57:10.255Z,35.10
2019-03-31T08:59:36.797Z,35.10
2019-03-31T09:02:21.978Z,35.00
2019-03-31T09:04:48.684Z,35.00
2019-03-31T09:07:15.262Z,34.90
2019-03-31T09:09:41.974Z,34.90
2019-03-31T09:12:08.563Z,34.90
2019-03-31T09:14:35.382Z,34.80
2019-03-31T09:17:02.167Z,34.70
2019-03-31T09:19:28.740Z,34.70
2019-03-31T09:21:55.225Z,34.60
2019-03-31T09:24:21.937Z,34.60
2019-03-31T09:26:48.730Z,34.60
2019-03-31T09:29:15.337Z,34.60
2019-03-31T09:31:41.955Z,34.40
2019-03-31T09:34:08.544Z,34.40
2019-03-31T09:36:35.118Z,34.30
2019-03-31T09:39:03.720Z,34.30
2019-03-31T09:41:30.565Z,34.40
2019-03-31T09:43:57.176Z,34.30
2019-03-31T09:46:23.735Z,34.40
2019-03-31T09:48:50.736Z,34.50
2019-03-31T09:51:17.566Z,34.50
2019-03-31T09:53:44.182Z,34.40
2019-03-31T09:56:10.987Z,34.30
2019-03-31T09:58:38.064Z,34.30
2019-03-31T10:01:07.916Z,34.30
2019-03-31T10:03:33.036Z,34.20
2019-03-31T10:06:10.065Z,34.10
2019-03-31T10:08:28.012Z,34.10
2019-03-31T10:10:54.950Z,34.20
2019-03-31T10:13:22.500Z,34.30
2019-03-31T10:15:50.605Z,34.40
2019-03-31T10:18:18.260Z,34.50
2019-03-31T10:20:45.081Z,34.60
2019-03-31T10:23:12.105Z,34.70
2019-03-31T10:25:39.463Z,34.70
2019-03-31T10:28:06.524Z,34.70
2019-03-31T10:30:35.333Z,34.80
2019-03-31T10:33:03.362Z,34.80
2019-03-31T10:35:32.136Z,34.80
2019-03-31T10:37:59.321Z,34.90
2019-03-31T10:40:26.545Z,35.10
2019-03-31T10:42:53.901Z,35.10
2019-03-31T10:45:21.655Z,35.10
2019-03-31T10:47:48.549Z,35.10
2019-03-31T10:50:15.637Z,35.10
2019-03-31T10:52:42.688Z,35.10
2019-03-31T10:55:09.655Z,35.10
2019-03-31T10:57:36.998Z,35.10
2019-03-31T11:00:08.083Z,35.10
2019-03-31T11:02:35.074Z,35.10
2019-03-31T11:05:01.868Z,35.10
2019-03-31T11:07:29.176Z,35.00
2019-03-31T11:09:57.061Z,34.90
2019-03-31T11:12:24.309Z,35.00
2019-03-31T11:14:51.783Z,35.10
2019-03-31T11:17:18.907Z,35.20
2019-03-31T11:19:45.891Z,35.30
2019-03-31T11:22:14.837Z,35.20
2019-03-31T11:24:41.667Z,35.20
2019-03-31T11:27:08.348Z,35.20
2019-03-31T11:29:35.439Z,35.40
2019-03-31T11:32:02.262Z,35.50
2019-03-31T11:34:28.952Z,35.40
2019-03-31T11:36:55.670Z,35.40
2019-03-31T11:39:25.439Z,35.40
2019-03-31T11:41:53.327Z,35.50
2019-03-31T11:44:21.330Z,35.60
2019-03-31T11:46:48.237Z,35.70
2019-03-31T11:49:15.152Z,35.80
2019-03-31T11:51:41.739Z,35.90
2019-03-31T11:54:08.264Z,35.90
2019-03-31T11:56:35.502Z,35.90
2019-03-31T11:59:02.140Z,35.90
2019-03-31T12:01:28.854Z,35.90
2019-03-31T12:03:55.823Z,36.00
2019-03-31T12:06:22.455Z,36.10
2019-03-31T12:08:48.983Z,36.20
2019-03-31T12:11:16.152Z,36.00
2019-03-31T12:13:42.712Z,35.90
2019-03-31T12:16:09.223Z,35.80
2019-03-31T12:18:36.249Z,35.80
2019-03-31T12:21:04.988Z,35.60
2019-03-31T12:23:33.234Z,35.50
2019-03-31T12:25:59.950Z,35.30
2019-03-31T12:28:26.497Z,35.40
2019-03-31T12:31:06.748Z,35.50
2019-03-31T12:33:33.348Z,35.50
2019-03-31T12:35:59.934Z,35.60
2019-03-31T12:38:28.242Z,35.60
2019-03-31T12:40:55.241Z,35.60
2019-03-31T12:43:22.164Z,35.60
2019-03-31T12:45:49.119Z,35.60
2019-03-31T12:48:15.998Z,35.60
2019-03-31T12:50:43.341Z,35.50
2019-03-31T12:53:30.054Z,35.30
2019-03-31T12:56:00.430Z,35.30
2019-03-31T12:58:25.431Z,35.20
2019-03-31T13:00:52.297Z,35.20
2019-03-31T13:03:19.150Z,35.10
2019-03-31T13:05:46.639Z,35.10
2019-03-31T13:08:13.921Z,35.00
2019-03-31T13:10:41.687Z,35.00
2019-03-31T13:13:08.642Z,34.80
2019-03-31T13:15:37.523Z,34.90
2019-03-31T13:18:04.114Z,34.80
2019-03-31T13:20:30.743Z,34.80
2019-03-31T13:22:57.533Z,34.80
2019-03-31T13:25:24.269Z,34.70
2019-03-31T13:27:51.482Z,34.60
2019-03-31T13:30:21.652Z,34.60
2019-03-31T13:32:48.041Z,34.50
2019-03-31T13:35:15.656Z,34.40
2019-03-31T13:37:42.745Z,34.40
2019-03-31T13:40:09.669Z,34.20
2019-03-31T13:42:36.388Z,34.10
2019-03-31T13:45:05.698Z,34.20
2019-03-31T13:47:32.576Z,34.30
2019-03-31T13:49:59.384Z,34.40
2019-03-31T13:52:26.020Z,34.30
2019-03-31T13:54:53.011Z,34.40
2019-03-31T13:57:19.946Z,34.30
2019-03-31T13:59:46.898Z,34.20
2019-03-31T14:02:13.587Z,34.20
2019-03-31T14:04:51.442Z,34.20
2019-03-31T14:07:09.927Z,34.20
2019-03-31T14:09:36.991Z,34.20
2019-03-31T14:12:03.659Z,34.20
2019-03-31T14:14:30.308Z,34.10
2019-03-31T14:16:56.860Z,34.10
2019-03-31T14:19:23.775Z,34.10
2019-03-31T14:21:51.370Z,33.90
2019-03-31T14:24:17.933Z,33.90
2019-03-31T14:26:47.618Z,33.80
2019-03-31T14:29:13.283Z,33.70
2019-03-31T14:31:39.980Z,33.70
2019-03-31T14:34:06.555Z,33.60
2019-03-31T14:36:33.822Z,33.60
2019-03-31T14:39:01.182Z,33.60
2019-03-31T14:41:28.449Z,33.60
2019-03-31T14:43:56.386Z,33.60
2019-03-31T14:46:23.032Z,33.40
2019-03-31T14:48:49.909Z,33.40
2019-03-31T14:51:16.616Z,33.40
2019-03-31T14:53:45.641Z,33.30
2019-03-31T14:56:12.407Z,33.30
2019-03-31T14:58:39.468Z,33.30
2019-03-31T15:01:06.239Z,33.30
2019-03-31T15:03:33.058Z,33.10
2019-03-31T15:06:00.046Z,33.00
2019-03-31T15:08:26.961Z,33.00
2019-03-31T15:10:54.041Z,33.10
2019-03-31T15:13:20.928Z,33.10
2019-03-31T15:15:47.563Z,33.20
2019-03-31T15:18:14.223Z,33.20
2019-03-31T15:20:42.734Z,33.10
2019-03-31T15:23:09.314Z,33.10
2019-03-31T15:25:36.508Z,33.10
2019-03-31T15:28:03.504Z,33.00
2019-03-31T15:30:30.422Z,33.00
2019-03-31T15:32:57.316Z,33.10
2019-03-31T15:35:23.992Z,33.00
2019-03-31T15:37:50.837Z,33.00
2019-03-31T15:40:17.917Z,32.90
2019-03-31T15:42:44.985Z,33.00
2019-03-31T15:45:11.903Z,32.90
2019-03-31T15:47:38.643Z,32.90
2019-03-31T15:50:06.325Z,32.90
2019-03-31T15:52:32.966Z,32.90
2019-03-31T15:55:00.618Z,32.90
2019-03-31T15:57:27.449Z,32.90
2019-03-31T15:59:54.398Z,32.90
2019-03-31T16:02:23.165Z,33.00
2019-03-31T16:04:49.897Z,32.90
2019-03-31T16:07:17.182Z,32.90
2019-03-31T16:09:44.071Z,32.80
2019-03-31T16:12:10.970Z,32.80
2019-03-31T16:14:38.102Z,32.70
2019-03-31T16:17:04.979Z,32.70
2019-03-31T16:19:31.872Z,32.60
2019-03-31T16:21:58.557Z,32.60
2019-03-31T16:24:43.688Z,32.50
2019-03-31T16:27:10.714Z,32.50
2019-03-31T16:29:37.979Z,32.30
2019-03-31T16:32:04.507Z,32.20
2019-03-31T16:34:32.598Z,32.10
2019-03-31T16:36:59.523Z,32.00
2019-03-31T16:39:37.013Z,32.00
2019-03-31T16:41:56.219Z,32.00
2019-03-31T16:44:23.320Z,31.90
2019-03-31T16:46:50.479Z,31.80
2019-03-31T16:49:18.029Z,31.70
2019-03-31T16:51:47.979Z,31.50
2019-03-31T16:54:15.810Z,31.40
2019-03-31T16:56:43.256Z,31.30
2019-03-31T16:59:11.265Z,31.30
2019-03-31T17:01:38.252Z,31.30
2019-03-31T17:04:05.120Z,31.30
2019-03-31T17:06:32.484Z,31.20
2019-03-31T17:08:59.532Z,31.10
2019-03-31T17:11:26.965Z,31.00
2019-03-31T17:13:54.523Z,30.90
2019-03-31T17:16:21.244Z,30.70
2019-03-31T17:18:48.923Z,30.50
2019-03-31T17:21:16.167Z,30.40
2019-03-31T17:23:43.341Z,30.30
2019-03-31T17:26:10.399Z,30.20
2019-03-31T17:28:37.390Z,30.10
2019-03-31T17:31:04.147Z,30.10
2019-03-31T17:33:31.369Z,30.10
2019-03-31T17:35:58.769Z,30.10
2019-03-31T17:38:26.201Z,30.10
2019-03-31T17:40:53.380Z,30.00
2019-03-31T17:43:20.497Z,30.00
2019-03-31T17:45:47.648Z,29.90
2019-03-31T17:48:14.802Z,29.90
2019-03-31T17:50:42.047Z,29.90
2019-03-31T17:53:09.654Z,29.70
2019-03-31T17:55:37.162Z,29.60
2019-03-31T17:58:04.635Z,29.50
2019-03-31T18:00:31.661Z,29.40
2019-03-31T18:02:58.842Z,29.30
2019-03-31T18:05:26.071Z,29.20
2019-03-31T18:07:53.008Z,29.10
2019-03-31T18:10:21.574Z,29.00
2019-03-31T18:12:48.937Z,29.00
2019-03-31T18:15:16.126Z,28.90
2019-03-31T18:17:43.649Z,28.80
2019-03-31T18:20:10.722Z,28.70
2019-03-31T18:22:38.570Z,28.60
2019-03-31T18:25:06.518Z,28.60
2019-03-31T18:27:33.628Z,28.60
2019-03-31T18:30:00.918Z,28.50
2019-03-31T18:32:27.966Z,28.50
2019-03-31T18:34:55.633Z,28.60
2019-03-31T18:37:24.630Z,28.50
2019-03-31T18:39:51.876Z,28.50
2019-03-31T18:42:18.929Z,28.40
2019-03-31T18:44:46.173Z,28.30
2019-03-31T18:47:13.522Z,28.30
2019-03-31T18:49:40.540Z,28.20
2019-03-31T18:52:08.478Z,28.10
2019-03-31T18:54:53.214Z,28.10
2019-03-31T18:57:22.396Z,28.00
2019-03-31T18:59:51.712Z,27.90
2019-03-31T19:02:26.673Z,27.90
2019-03-31T19:05:08.532Z,27.80
2019-03-31T19:07:40.084Z,27.60
2019-03-31T19:10:25.190Z,27.60
2019-03-31T19:12:57.000Z,27.50
2019-03-31T19:15:40.643Z,27.40
2019-03-31T19:18:15.658Z,27.50
2019-03-31T19:20:44.645Z,27.50
2019-03-31T19:23:16.300Z,27.50
2019-03-31T19:25:51.765Z,27.50
2019-03-31T19:28:38.962Z,27.50
2019-03-31T19:31:07.730Z,27.50
2019-03-31T19:33:53.041Z,27.60
2019-03-31T19:36:31.029Z,27.60
2019-03-31T19:39:05.741Z,27.60
2019-03-31T19:41:34.988Z,27.50
2019-03-31T19:44:09.951Z,27.50
2019-03-31T19:46:56.680Z,27.40
2019-03-31T19:49:25.411Z,27.30
2019-03-31T19:52:00.537Z,27.30
2019-03-31T19:54:38.765Z,27.30
2019-03-31T19:57:24.872Z,27.20
2019-03-31T20:00:06.084Z,27.10
2019-03-31T20:02:41.258Z,27.10
2019-03-31T20:05:13.304Z,27.10
2019-03-31T20:07:59.764Z,27.00
2019-03-31T20:10:44.242Z,27.00
2019-03-31T20:13:13.338Z,27.10
2019-03-31T20:15:42.757Z,27.00
2019-03-31T20:18:30.711Z,27.00
2019-03-31T20:21:10.743Z,26.80
2019-03-31T20:23:39.718Z,26.80
2019-03-31T20:26:15.219Z,26.80
2019-03-31T20:29:02.782Z,26.70
2019-03-31T20:31:34.952Z,26.70
2019-03-31T20:34:04.228Z,26.60
2019-03-31T20:36:45.423Z,26.60
2019-03-31T20:39:18.695Z,26.60
2019-03-31T20:41:53.220Z,26.50
2019-03-31T20:44:20.878Z,26.40
2019-03-31T20:46:48.339Z,26.40
2019-03-31T20:49:15.678Z,26.30
2019-03-31T20:51:42.932Z,26.40
2019-03-31T20:54:11.362Z,26.30
2019-03-31T20:56:40.420Z,26.20
2019-03-31T20:59:07.558Z,26.20
2019-03-31T21:01:35.422Z,26.20
2019-03-31T21:04:02.673Z,26.10
2019-03-31T21:06:33.741Z,26.20
2019-03-31T21:09:01.064Z,26.10
2019-03-31T21:11:28.734Z,26.00
2019-03-31T21:13:59.915Z,26.00
2019-03-31T21:16:27.533Z,26.00
2019-03-31T21:18:54.980Z,25.90
2019-03-31T21:21:22.020Z,25.80
2019-03-31T21:23:49.683Z,25.80
2019-03-31T21:26:17.375Z,25.80
2019-03-31T21:28:44.832Z,25.80
2019-03-31T21:31:12.401Z,25.70
2019-03-31T21:33:39.606Z,25.70
2019-03-31T21:36:06.981Z,25.60
2019-03-31T21:38:34.665Z,25.60
2019-03-31T21:41:02.202Z,25.60
2019-03-31T21:43:29.737Z,25.60
2019-03-31T21:45:58.458Z,25.50
2019-03-31T21:48:25.689Z,25.50
2019-03-31T21:50:53.369Z,25.50
2019-03-31T21:53:21.185Z,25.50
2019-03-31T21:55:48.592Z,25.50
2019-03-31T21:58:15.998Z,25.50
2019-03-31T22:03:18.414Z,25.50
2019-03-31T22:05:45.334Z,25.50
2019-03-31T22:08:12.792Z,25.40
2019-03-31T22:10:40.508Z,25.50
2019-03-31T22:13:09.019Z,25.40
2019-03-31T22:15:37.028Z,25.40
2019-03-31T22:18:06.104Z,25.30
2019-03-31T22:20:32.932Z,25.40
2019-03-31T22:22:59.729Z,25.30
2019-03-31T22:25:26.691Z,25.30
2019-03-31T22:27:53.248Z,25.20
2019-03-31T22:30:20.288Z,25.20
2019-03-31T22:32:47.693Z,25.20
2019-03-31T22:35:14.794Z,25.20
2019-03-31T22:37:43.848Z,25.20
2019-03-31T22:40:11.142Z,25.10
2019-03-31T22:42:38.185Z,25.00
2019-03-31T22:45:05.017Z,24.90
2019-03-31T22:47:34.167Z,24.80
2019-03-31T22:50:02.253Z,24.80
2019-03-31T22:52:30.148Z,24.70
2019-03-31T22:54:58.021Z,24.70
2019-03-31T22:57:24.979Z,24.60
2019-03-31T22:59:52.305Z,24.70
2019-03-31T23:02:18.852Z,24.60
2019-03-31T23:04:45.455Z,24.60
2019-03-31T23:07:13.420Z,24.50
2019-03-31T23:09:40.016Z,24.50
2019-03-31T23:12:06.582Z,24.40
2019-03-31T23:14:33.095Z,24.40
2019-03-31T23:16:59.647Z,24.20
2019-03-31T23:19:26.236Z,24.20
2019-03-31T23:21:55.184Z,24.30
2019-03-31T23:24:21.720Z,24.20
2019-03-31T23:26:48.189Z,24.20
2019-03-31T23:29:14.672Z,24.10
2019-03-31T23:31:41.474Z,24.00
2019-03-31T23:34:10.537Z,24.00
2019-03-31T23:36:37.898Z,24.00
2019-03-31T23:39:05.861Z,24.00
2019-03-31T23:41:33.118Z,24.00
2019-03-31T23:44:00.364Z,24.00
2019-03-31T23:46:27.553Z,24.00
2019-03-31T23:48:54.124Z,24.00
2019-03-31T23:51:21.196Z,24.00
2019-03-31T23:53:48.246Z,23.90
2019-03-31T23:56:15.391Z,23.90
2019-03-31T23:58:42.123Z,23.90
